Time;durP1;ratioP1;P1;durP2;ratioP2;P2;SDS_P1;SDS_P2;PMS_P1;PMS_P2;Temp;Humidity;BMP_temperature;BMP_pressure;BME280_temperature;BME280_humidity;BME280_pressure;Samples;Min_cycle;Max_cycle;Signal;HPM_P1;HPM_P2
2023/01/21 00:00:30;;;;;;;32.70;17.25;;;;;;;0.09;92.34;102475.41;5013463;28;20029;-61
2023/01/21 00:02:56;;;;;;;37.08;17.38;;;;;;;0.11;92.57;102481.63;5013881;28;20042;-61
2023/01/21 00:05:22;;;;;;;36.88;18.05;;;;;;;0.10;92.23;102480.72;5013831;28;20080;-61
2023/01/21 00:07:48;;;;;;;36.10;17.27;;;;;;;0.08;92.21;102482.28;5013534;28;20034;-62
2023/01/21 00:10:14;;;;;;;36.00;17.40;;;;;;;0.10;92.29;102485.00;5013512;28;20034;-62
2023/01/21 00:12:39;;;;;;;32.45;17.48;;;;;;;0.11;92.11;102489.41;5013428;28;20551;-62
2023/01/21 00:15:05;;;;;;;34.35;18.40;;;;;;;0.10;92.45;102498.91;5013740;28;20022;-61
2023/01/21 00:17:34;;;;;;;36.67;19.65;;;;;;;0.10;91.92;102506.72;5013367;28;20502;-61
2023/01/21 00:20:01;;;;;;;40.53;18.90;;;;;;;0.09;91.93;102511.78;5013151;28;20108;-61
2023/01/21 00:22:26;;;;;;;44.83;18.92;;;;;;;0.06;91.95;102508.94;5013444;28;20050;-61
2023/01/21 00:24:51;;;;;;;35.10;17.55;;;;;;;0.02;92.24;102505.19;5013371;28;20108;-61
2023/01/21 00:27:17;;;;;;;38.35;18.33;;;;;;;0.02;92.37;102517.28;5013365;28;20033;-62
2023/01/21 00:29:42;;;;;;;34.97;17.98;;;;;;;-0.01;92.20;102499.75;5013339;28;20030;-61
2023/01/21 00:32:07;;;;;;;35.20;17.90;;;;;;;0.02;92.36;102507.78;5015413;28;20034;-61
2023/01/21 00:34:33;;;;;;;38.67;17.90;;;;;;;0.02;91.70;102517.28;5017352;28;20034;-61
2023/01/21 00:36:58;;;;;;;35.30;18.17;;;;;;;-0.01;91.85;102517.94;5017263;28;20034;-62
2023/01/21 00:39:23;;;;;;;36.95;18.08;;;;;;;-0.04;92.03;102510.81;5017402;28;20057;-62
2023/01/21 00:41:49;;;;;;;34.50;17.35;;;;;;;-0.03;91.91;102527.31;5017173;28;20472;-61
2023/01/21 00:44:15;;;;;;;34.70;18.90;;;;;;;-0.03;92.29;102516.91;5017175;28;20034;-61
2023/01/21 00:46:40;;;;;;;39.10;19.60;;;;;;;-0.04;91.98;102522.91;5017223;28;20034;-61
2023/01/21 00:49:06;;;;;;;36.10;18.52;;;;;;;-0.16;92.28;102519.31;5016879;28;20026;-61
2023/01/21 00:51:31;;;;;;;37.50;18.42;;;;;;;-0.10;92.34;102530.19;5016827;28;20064;-61
2023/01/21 00:53:56;;;;;;;34.88;18.58;;;;;;;-0.13;92.20;102527.34;5016963;28;20030;-62
2023/01/21 00:56:22;;;;;;;36.40;18.25;;;;;;;-0.13;92.64;102546.44;5017006;28;20030;-62
2023/01/21 00:58:47;;;;;;;34.60;18.08;;;;;;;-0.14;92.54;102544.63;5016872;28;20026;-62
2023/01/21 01:01:17;;;;;;;36.00;18.60;;;;;;;-0.13;92.33;102550.72;5016920;28;20106;-63
2023/01/21 01:03:43;;;;;;;35.90;18.60;;;;;;;-0.14;92.10;102560.19;5016723;28;20025;-65
2023/01/21 01:06:26;;;;;;;54.38;25.58;;;;;;;-0.12;92.37;102571.66;5017016;28;20534;-61
2023/01/21 01:08:56;;;;;;;58.15;23.70;;;;;;;-0.13;92.38;102568.91;5016792;28;20391;-62
2023/01/21 01:11:24;;;;;;;40.42;19.63;;;;;;;-0.17;92.56;102579.81;5016685;28;20399;-62
2023/01/21 01:13:49;;;;;;;39.20;20.05;;;;;;;-0.24;92.30;102570.63;5016881;28;20121;-62
2023/01/21 01:16:15;;;;;;;39.42;20.48;;;;;;;-0.21;92.63;102588.16;5016497;28;20081;-62
2023/01/21 01:18:40;;;;;;;41.38;19.70;;;;;;;-0.20;92.15;102579.59;5016584;28;20049;-61
2023/01/21 01:21:11;;;;;;;42.38;20.67;;;;;;;-0.20;92.60;102592.59;5016495;28;20034;-62
2023/01/21 01:23:36;;;;;;;42.53;20.33;;;;;;;-0.20;93.01;102601.28;5016712;28;20030;-61
2023/01/21 01:26:04;;;;;;;42.80;21.25;;;;;;;-0.20;92.94;102608.16;5016402;28;20403;-61
2023/01/21 01:28:31;;;;;;;46.38;21.80;;;;;;;-0.21;92.64;102616.72;5016603;28;20026;-61
2023/01/21 01:30:57;;;;;;;43.15;22.23;;;;;;;-0.22;93.12;102621.00;5016322;28;20029;-62
2023/01/21 01:33:23;;;;;;;44.00;21.17;;;;;;;-0.21;92.56;102625.44;5016513;28;20014;-62
2023/01/21 01:35:49;;;;;;;44.70;20.90;;;;;;;-0.19;92.64;102625.56;5016252;28;20472;-62
2023/01/21 01:38:15;;;;;;;44.58;21.42;;;;;;;-0.20;92.75;102632.47;5016191;28;20068;-62
2023/01/21 01:40:41;;;;;;;44.40;22.20;;;;;;;-0.22;92.68;102639.19;5016073;28;20069;-62
2023/01/21 01:43:19;;;;;;;45.60;22.00;;;;;;;-0.26;93.09;102638.06;5014802;28;20472;-61
2023/01/21 01:45:47;;;;;;;46.22;22.20;;;;;;;-0.29;93.03;102643.00;5016070;28;20481;-61
2023/01/21 01:48:21;;;;;;;48.15;23.40;;;;;;;-0.30;92.97;102646.38;5016286;28;20018;-61
2023/01/21 01:50:47;;;;;;;46.78;22.13;;;;;;;-0.31;92.87;102654.91;5015781;28;20060;-62
2023/01/21 01:53:15;;;;;;;48.67;22.38;;;;;;;-0.29;93.46;102655.97;5016089;28;20034;-62
2023/01/21 01:55:41;;;;;;;47.45;22.77;;;;;;;-0.30;93.23;102656.78;5015775;28;20034;-62
2023/01/21 01:58:11;;;;;;;45.88;22.95;;;;;;;-0.32;92.92;102660.00;5015843;28;20026;-61
2023/01/21 02:00:36;;;;;;;46.15;22.77;;;;;;;-0.31;92.87;102659.22;5015709;28;20384;-61
2023/01/21 02:05:47;;;;;;;44.22;23.17;;;;;;;-0.37;92.80;102664.81;5015841;28;20057;-62
2023/01/21 02:08:13;;;;;;;46.30;23.63;;;;;;;-0.40;93.09;102655.84;5015630;28;20464;-59
2023/01/21 02:10:39;;;;;;;43.95;22.73;;;;;;;-0.42;93.25;102660.94;5015772;28;20048;-62
2023/01/21 02:13:05;;;;;;;48.88;23.65;;;;;;;-0.38;93.16;102667.28;5015453;28;20527;-60
2023/01/21 02:15:58;;;;;;;50.58;23.15;;;;;;;-0.38;93.40;102662.09;5015434;28;20026;-60
2023/01/21 02:18:40;;;;;;;51.60;24.23;;;;;;;-0.36;93.19;102677.00;5015469;28;20029;-63
2023/01/21 02:21:39;;;;;;;47.90;23.73;;;;;;;-0.36;92.77;102679.59;5015446;28;20061;-60
2023/01/21 02:24:29;;;;;;;49.90;23.95;;;;;;;-0.36;93.27;102684.81;5015337;28;20022;-60
2023/01/21 02:27:28;;;;;;;51.65;24.77;;;;;;;-0.35;92.81;102693.50;5015272;28;20038;-60
2023/01/21 02:30:18;;;;;;;52.45;23.17;;;;;;;-0.35;93.30;102701.28;4997861;28;20025;-61
2023/01/21 02:33:12;;;;;;;48.38;24.58;;;;;;;-0.39;92.61;102694.03;4997560;28;20486;-60
2023/01/21 02:35:46;;;;;;;54.50;24.42;;;;;;;-0.40;92.81;102692.22;5015360;28;20037;-60
2023/01/21 02:38:11;;;;;;;55.47;25.90;;;;;;;-0.45;92.94;102704.81;5015134;28;20104;-60
2023/01/21 02:40:46;;;;;;;50.20;25.73;;;;;;;-0.50;92.98;102703.50;5014933;28;20163;-60
2023/01/21 02:43:37;;;;;;;52.53;25.60;;;;;;;-0.53;93.23;102701.56;5014989;28;20026;-60
2023/01/21 02:46:25;;;;;;;54.05;24.60;;;;;;;-0.53;93.28;102709.34;5014939;28;20025;-60
2023/01/21 02:49:04;;;;;;;51.53;24.83;;;;;;;-0.54;93.04;102707.53;5014847;28;20484;-60
2023/01/21 02:51:29;;;;;;;53.67;25.77;;;;;;;-0.54;93.26;102711.81;5014476;28;20522;-60
2023/01/21 02:53:54;;;;;;;51.28;25.65;;;;;;;-0.53;93.02;102716.22;5014429;28;20034;-61
2023/01/21 02:56:24;;;;;;;52.80;25.63;;;;;;;-0.54;93.42;102722.22;5014709;28;20193;-60
2023/01/21 02:58:56;;;;;;;54.03;25.40;;;;;;;-0.63;93.18;102714.53;5014620;28;20125;-60
2023/01/21 03:01:25;;;;;;;;;;;;;;;-0.55;93.57;102728.19;5015228;28;20502;-60
2023/01/21 03:04:08;;;;;;;50.25;24.15;;;;;;;-0.62;93.00;102723.22;5014598;28;19913;-60
2023/01/21 03:06:47;;;;;;;50.53;22.80;;;;;;;-0.58;93.91;102720.13;5014582;28;20108;-60
2023/01/21 03:09:20;;;;;;;52.08;26.15;;;;;;;-0.61;93.49;102728.53;5014725;28;20121;-59
2023/01/21 03:12:12;;;;;;;55.00;25.10;;;;;;;-0.61;93.75;102730.25;5014512;28;20041;-60
2023/01/21 03:17:55;;;;;;;53.58;24.67;;;;;;;-0.55;93.86;102749.88;5014687;28;20283;-60
2023/01/21 03:20:33;;;;;;;53.03;24.83;;;;;;;-0.55;93.33;102738.56;5014267;28;20428;-60
2023/01/21 03:23:04;;;;;;;55.08;26.05;;;;;;;-0.59;93.00;102739.09;5014359;28;20033;-61
2023/01/21 03:25:32;;;;;;;53.60;25.45;;;;;;;-0.60;93.10;102753.75;5014288;28;20045;-60
2023/01/21 03:27:59;;;;;;;50.22;24.00;;;;;;;-0.64;93.14;102756.88;5014192;28;20026;-61
2023/01/21 03:30:27;;;;;;;54.03;25.25;;;;;;;-0.70;93.75;102751.13;5014122;28;20430;-60
2023/01/21 03:32:54;;;;;;;56.63;26.73;;;;;;;-0.73;93.64;102750.84;5014317;28;20124;-60
2023/01/21 03:35:27;;;;;;;52.75;25.15;;;;;;;-0.76;94.03;102742.81;5014039;28;20614;-62
2023/01/21 03:38:02;;;;;;;54.08;24.38;;;;;;;-0.74;94.25;102753.31;5014137;28;20026;-60
2023/01/21 03:40:37;;;;;;;49.97;25.05;;;;;;;-0.73;93.90;102756.03;5013901;28;20026;-61
2023/01/21 03:43:03;;;;;;;49.78;23.75;;;;;;;-0.71;94.07;102751.91;5014050;28;20030;-62
2023/01/21 03:45:52;;;;;;;53.15;25.35;;;;;;;-0.70;93.87;102755.41;5013839;28;20109;-60
2023/01/21 03:48:26;;;;;;;54.28;24.75;;;;;;;-0.68;93.49;102764.25;5013890;28;20510;-60
2023/01/21 03:50:57;;;;;;;51.40;24.63;;;;;;;-0.68;93.51;102766.84;5013497;28;20160;-60
2023/01/21 03:53:23;;;;;;;48.58;23.05;;;;;;;-0.70;93.20;102763.19;5013743;28;20037;-60
2023/01/21 03:55:50;;;;;;;49.30;23.30;;;;;;;-0.71;93.46;102777.88;5013968;28;20055;-60
2023/01/21 03:58:15;;;;;;;49.88;24.08;;;;;;;-0.73;93.43;102773.31;5013707;28;20038;-60
2023/01/21 04:00:40;;;;;;;52.53;23.77;;;;;;;-0.75;93.61;102775.78;5013573;28;20080;-60
2023/01/21 04:03:06;;;;;;;53.75;24.65;;;;;;;-0.77;93.38;102769.56;5013659;28;20030;-60
2023/01/21 04:05:31;;;;;;;44.38;23.15;;;;;;;-0.79;93.83;102781.47;5013327;28;20030;-60
2023/01/21 04:07:57;;;;;;;51.47;24.15;;;;;;;-0.82;93.88;102782.09;5013243;28;20502;-60
2023/01/21 04:10:22;;;;;;;47.67;22.58;;;;;;;-0.85;94.43;102774.06;5013809;28;20037;-59
2023/01/21 04:12:47;;;;;;;49.65;23.00;;;;;;;-0.88;94.31;102778.97;5013538;28;20396;-60
2023/01/21 04:15:13;;;;;;;48.25;21.70;;;;;;;-0.86;94.50;102787.78;5013460;28;20040;-59
2023/01/21 04:17:38;;;;;;;47.53;22.77;;;;;;;-0.85;93.95;102793.94;5013495;28;20033;-60
2023/01/21 04:20:05;;;;;;;46.78;21.23;;;;;;;-0.85;93.70;102793.94;5013157;28;20435;-60
2023/01/21 04:22:30;;;;;;;46.13;21.90;;;;;;;-0.86;94.16;102798.19;5013294;28;20130;-60
2023/01/21 04:24:55;;;;;;;50.20;22.50;;;;;;;-0.83;94.02;102798.47;5013380;28;20523;-60
2023/01/21 04:27:21;;;;;;;45.25;22.13;;;;;;;-0.84;93.86;102801.84;5013325;28;20049;-60
2023/01/21 04:29:46;;;;;;;49.03;21.17;;;;;;;-0.79;93.95;102800.53;5013346;28;20113;-60
2023/01/21 04:32:11;;;;;;;46.30;21.88;;;;;;;-0.81;93.59;102806.41;5013311;28;20507;-60
2023/01/21 04:34:37;;;;;;;46.47;21.10;;;;;;;-0.81;93.69;102803.81;5013310;28;20054;-62
2023/01/21 04:37:02;;;;;;;40.55;20.35;;;;;;;-0.80;93.90;102800.44;5013281;28;20026;-60
2023/01/21 04:39:27;;;;;;;45.95;20.60;;;;;;;-0.81;93.68;102796.91;5013127;28;20037;-60
2023/01/21 04:41:53;;;;;;;41.03;20.48;;;;;;;-0.82;93.54;102792.47;5013214;28;20045;-60
2023/01/21 04:44:18;;;;;;;46.85;20.50;;;;;;;-0.81;93.51;102801.22;5013141;28;20033;-60
2023/01/21 04:46:44;;;;;;;45.28;19.70;;;;;;;-0.79;93.47;102807.44;5013222;28;20037;-60
2023/01/21 04:49:09;;;;;;;42.92;20.33;;;;;;;-0.80;93.27;102803.03;5012937;28;20026;-60
2023/01/21 04:51:34;;;;;;;42.95;21.27;;;;;;;-0.84;93.26;102804.44;5013080;28;20139;-60
2023/01/21 04:54:00;;;;;;;39.67;19.20;;;;;;;-0.85;93.24;102815.59;5013203;28;20030;-60
2023/01/21 04:56:25;;;;;;;48.88;20.70;;;;;;;-0.85;93.33;102813.00;5013113;28;20041;-61
2023/01/21 04:58:50;;;;;;;43.22;19.67;;;;;;;-0.84;93.18;102834.66;5013237;28;20034;-60
2023/01/21 05:01:16;;;;;;;38.50;18.40;;;;;;;-0.84;93.44;102824.28;5013062;28;20392;-60
2023/01/21 05:03:41;;;;;;;39.17;19.48;;;;;;;-0.87;93.17;102826.59;5013032;28;20088;-60
2023/01/21 05:06:07;;;;;;;42.42;19.17;;;;;;;-0.90;93.16;102829.84;5013077;28;20024;-60
2023/01/21 05:08:32;;;;;;;42.90;20.45;;;;;;;-0.92;93.34;102833.97;4995332;28;20472;-60
2023/01/21 05:10:57;;;;;;;43.25;20.85;;;;;;;-0.93;93.41;102839.94;5012962;28;20030;-60
2023/01/21 05:13:23;;;;;;;45.80;21.58;;;;;;;-1.01;93.10;102836.66;5012878;28;20057;-60
2023/01/21 05:15:48;;;;;;;40.50;20.10;;;;;;;-1.03;93.56;102839.88;5012943;28;20080;-60
2023/01/21 05:18:14;;;;;;;42.10;19.70;;;;;;;-0.99;93.83;102836.78;5014873;28;20036;-60
2023/01/21 05:20:39;;;;;;;41.83;19.80;;;;;;;-0.94;93.59;102838.13;5016473;28;20026;-61
2023/01/21 05:23:04;;;;;;;38.47;18.17;;;;;;;-0.90;93.78;102839.28;5016508;28;20522;-62
2023/01/21 05:25:30;;;;;;;41.70;20.27;;;;;;;-0.89;93.37;102839.44;5016443;28;20022;-62
2023/01/21 05:27:55;;;;;;;42.90;19.10;;;;;;;-0.89;93.18;102836.84;5016389;28;20109;-61
2023/01/21 05:30:21;;;;;;;40.25;19.77;;;;;;;-0.89;93.17;102842.03;5016338;28;20069;-61
2023/01/21 05:32:53;;;;;;;41.47;19.55;;;;;;;-0.90;93.10;102847.06;5016319;28;20030;-61
2023/01/21 05:35:23;;;;;;;40.35;19.38;;;;;;;-0.95;93.02;102851.88;5016290;28;20436;-61
2023/01/21 05:37:49;;;;;;;42.63;20.80;;;;;;;-0.99;93.28;102852.34;5016228;28;20392;-61
2023/01/21 05:40:16;;;;;;;44.53;18.83;;;;;;;-0.98;93.59;102855.91;5016110;28;20040;-61
2023/01/21 05:42:42;;;;;;;44.47;20.55;;;;;;;-1.00;93.12;102863.53;5016158;28;20034;-61
2023/01/21 05:45:09;;;;;;;44.88;20.10;;;;;;;-1.02;93.20;102868.59;5016108;28;20022;-61
2023/01/21 05:47:35;;;;;;;40.35;19.35;;;;;;;-1.06;93.23;102874.28;5016444;28;20112;-61
2023/01/21 05:50:01;;;;;;;43.13;19.75;;;;;;;-1.13;93.26;102873.56;5015682;28;20448;-60
2023/01/21 05:52:27;;;;;;;42.28;20.17;;;;;;;-1.14;93.57;102870.06;5015650;28;20102;-61
2023/01/21 05:54:52;;;;;;;45.63;19.48;;;;;;;-1.13;93.90;102870.97;5015890;28;20049;-60
2023/01/21 05:57:17;;;;;;;47.88;20.67;;;;;;;-1.15;93.26;102878.63;5016089;28;20057;-61
2023/01/21 05:59:43;;;;;;;44.45;19.10;;;;;;;-1.17;94.01;102872.38;5015649;28;20116;-61
2023/01/21 06:02:09;;;;;;;40.53;19.15;;;;;;;-1.16;93.71;102876.78;5015796;28;20141;-61
2023/01/21 06:04:34;;;;;;;43.08;19.67;;;;;;;-1.14;94.41;102883.03;5015998;28;20560;-61
2023/01/21 06:06:59;;;;;;;40.53;19.63;;;;;;;-1.13;93.93;102878.75;5015612;28;20040;-61
2023/01/21 06:09:25;;;;;;;45.10;20.75;;;;;;;-1.15;93.87;102882.91;5015627;28;20113;-61
2023/01/21 06:11:50;;;;;;;42.22;19.90;;;;;;;-1.18;93.80;102886.13;5015559;28;20030;-61
2023/01/21 06:14:15;;;;;;;41.60;19.60;;;;;;;-1.18;93.97;102887.81;5015550;28;20037;-61
2023/01/21 06:16:41;;;;;;;40.92;19.77;;;;;;;-1.19;93.97;102899.88;5015624;28;20033;-61
2023/01/21 06:19:06;;;;;;;41.35;19.67;;;;;;;-1.19;93.92;102898.97;5015175;28;20049;-60
2023/01/21 06:21:32;;;;;;;42.55;20.05;;;;;;;-1.18;94.04;102904.28;5015320;28;20087;-61
2023/01/21 06:23:57;;;;;;;43.70;19.90;;;;;;;-1.20;94.28;102905.84;5015561;28;20109;-61
2023/01/21 06:26:22;;;;;;;46.33;20.52;;;;;;;-1.23;94.32;102912.44;5015562;28;20040;-61
2023/01/21 06:28:48;;;;;;;42.05;19.92;;;;;;;-1.22;94.52;102909.06;5014778;28;20026;-61
2023/01/21 06:31:13;;;;;;;43.10;20.25;;;;;;;-1.23;94.45;102902.06;5015124;28;20044;-61
2023/01/21 06:33:38;;;;;;;43.50;19.17;;;;;;;-1.21;94.62;102910.88;5015179;28;20468;-61
2023/01/21 06:36:04;;;;;;;42.40;19.50;;;;;;;-1.20;94.51;102907.50;4997489;28;20038;-61
2023/01/21 06:38:30;;;;;;;46.38;19.55;;;;;;;-1.14;94.37;102913.25;5015018;28;20026;-60
2023/01/21 06:40:55;;;;;;;42.05;19.40;;;;;;;-1.15;94.64;102925.31;5015180;28;20037;-61
2023/01/21 06:43:21;;;;;;;46.17;20.50;;;;;;;-1.19;93.69;102920.63;5014980;28;20041;-61
2023/01/21 06:45:46;;;;;;;45.72;19.90;;;;;;;-1.19;94.01;102924.91;5015184;28;20471;-62
2023/01/21 06:48:12;;;;;;;38.47;19.45;;;;;;;-1.18;94.29;102930.22;5014942;28;20037;-61
2023/01/21 06:50:37;;;;;;;45.38;20.55;;;;;;;-1.15;93.75;102934.78;5014833;28;20031;-61
2023/01/21 06:53:02;;;;;;;43.65;21.15;;;;;;;-1.20;93.76;102930.84;5014612;28;20049;-61
2023/01/21 06:55:28;;;;;;;42.05;18.88;;;;;;;-1.16;93.82;102949.41;5014717;28;20499;-61
2023/01/21 06:57:53;;;;;;;46.75;20.58;;;;;;;-1.14;94.00;102952.16;5014948;28;20060;-61
2023/01/21 07:00:19;;;;;;;42.30;19.35;;;;;;;-1.16;93.90;102948.50;5014533;28;20036;-61
2023/01/21 07:02:44;;;;;;;42.25;19.90;;;;;;;-1.15;93.84;102956.44;5014925;28;20033;-61
2023/01/21 07:05:10;;;;;;;43.72;19.13;;;;;;;-1.16;93.58;102964.97;5014558;28;20026;-61
2023/01/21 07:07:35;;;;;;;42.55;18.85;;;;;;;-1.16;94.12;102959.78;5014535;28;20022;-61
2023/01/21 07:10:00;;;;;;;48.28;22.02;;;;;;;-1.18;93.42;102969.13;5014462;28;20121;-61
2023/01/21 07:12:26;;;;;;;43.85;19.92;;;;;;;-1.19;93.55;102967.31;5014472;28;20093;-60
2023/01/21 07:14:51;;;;;;;44.10;20.00;;;;;;;-1.19;93.44;102972.50;4996765;28;20057;-61
2023/01/21 07:17:17;;;;;;;44.33;21.23;;;;;;;-1.20;93.54;102982.72;5014503;28;20071;-61
2023/01/21 07:19:42;;;;;;;44.38;19.80;;;;;;;-1.24;93.56;102985.78;5014343;28;20032;-61
2023/01/21 07:22:08;;;;;;;43.15;19.83;;;;;;;-1.26;93.95;102981.38;5014297;28;20391;-60
2023/01/21 07:24:33;;;;;;;46.08;20.70;;;;;;;-1.29;94.01;102982.78;5014261;28;20483;-61
2023/01/21 07:26:58;;;;;;;43.22;20.77;;;;;;;-1.31;93.95;102989.53;5014212;28;20026;-61
2023/01/21 07:29:24;;;;;;;47.83;20.58;;;;;;;-1.33;94.08;102989.38;5014205;28;20557;-61
2023/01/21 07:31:50;;;;;;;45.63;20.63;;;;;;;-1.34;94.16;102999.59;5014110;28;20230;-62
2023/01/21 07:34:15;;;;;;;48.13;21.15;;;;;;;-1.38;94.46;103003.56;5014390;28;20116;-61
2023/01/21 07:36:41;;;;;;;51.22;21.92;;;;;;;-1.39;94.53;103000.84;5014282;28;20029;-61
2023/01/21 07:39:06;;;;;;;43.38;21.00;;;;;;;-1.33;94.70;103009.19;4996668;28;20380;-61
2023/01/21 07:41:31;;;;;;;45.53;20.50;;;;;;;-1.34;94.75;103010.88;5013086;28;20030;-61
2023/01/21 07:43:57;;;;;;;47.25;21.17;;;;;;;-1.30;94.58;103014.69;5013940;28;20476;-61
2023/01/21 07:46:22;;;;;;;46.28;20.88;;;;;;;-1.27;94.11;103012.38;5014127;28;20050;-61
2023/01/21 07:48:51;;;;;;;44.15;20.77;;;;;;;-1.26;93.91;103024.56;5014141;28;20030;-61
2023/01/21 07:51:17;;;;;;;48.38;21.67;;;;;;;-1.30;94.17;103025.97;5013392;28;20384;-61
2023/01/21 07:53:43;;;;;;;52.25;22.15;;;;;;;-1.32;94.77;103032.69;5013840;28;20539;-61
2023/01/21 07:56:09;;;;;;;46.67;20.35;;;;;;;-1.32;95.17;103039.56;5013972;28;20118;-61
2023/01/21 07:58:35;;;;;;;48.95;21.70;;;;;;;-1.35;94.90;103042.78;5013729;28;20022;-61
2023/01/21 08:01:03;;;;;;;46.58;21.33;;;;;;;-1.37;95.55;103045.97;5013551;28;20030;-61
2023/01/21 08:03:29;;;;;;;51.50;22.50;;;;;;;-1.37;96.08;103049.50;5013590;28;20026;-62
2023/01/21 08:05:54;;;;;;;55.47;23.05;;;;;;;-1.39;96.53;103052.72;5013568;28;20541;-62
2023/01/21 08:08:19;;;;;;;53.90;24.10;;;;;;;-1.35;96.80;103058.34;5013688;28;20084;-61
2023/01/21 08:10:50;;;;;;;53.80;23.38;;;;;;;-1.31;98.02;103068.22;5013438;28;20105;-62
2023/01/21 08:13:15;;;;;;;50.35;21.77;;;;;;;-1.22;97.20;103062.09;5013493;28;20480;-61
2023/01/21 08:15:41;;;;;;;52.97;22.33;;;;;;;-1.17;97.44;103076.38;5013454;28;20030;-61
2023/01/21 08:18:06;;;;;;;60.13;25.10;;;;;;;-1.18;97.88;103077.16;5013463;28;20026;-62
2023/01/21 08:20:31;;;;;;;53.13;23.73;;;;;;;-1.12;97.80;103088.09;5013389;28;20125;-61
2023/01/21 08:22:59;;;;;;;59.10;24.45;;;;;;;-1.11;97.81;103083.06;5013396;28;20039;-62
2023/01/21 08:25:24;;;;;;;57.78;23.10;;;;;;;-1.04;98.22;103093.25;5013348;28;20034;-61
2023/01/21 08:27:50;;;;;;;52.90;23.10;;;;;;;-1.00;97.88;103097.03;5013459;28;20053;-61
2023/01/21 08:30:15;;;;;;;61.75;26.20;;;;;;;-1.00;98.12;103107.41;4995696;28;20038;-62
2023/01/21 08:32:41;;;;;;;57.00;24.08;;;;;;;-0.99;98.43;103091.06;5013542;28;20113;-61
2023/01/21 08:35:07;;;;;;;55.55;22.48;;;;;;;-0.98;98.68;103105.91;5013553;28;20380;-61
2023/01/21 08:37:32;;;;;;;71.78;26.08;;;;;;;-0.94;99.23;103118.38;5013424;28;20476;-62
2023/01/21 08:39:58;;;;;;;56.78;24.05;;;;;;;-0.93;99.12;103116.69;5013280;28;20026;-62
2023/01/21 08:42:23;;;;;;;57.88;25.00;;;;;;;-0.89;99.32;103117.13;5013491;28;20034;-61
2023/01/21 08:44:50;;;;;;;57.42;23.70;;;;;;;-0.85;99.08;103127.03;5013214;28;20407;-61
2023/01/21 08:47:16;;;;;;;55.72;24.17;;;;;;;-0.81;99.20;103125.63;5013406;28;20041;-61
2023/01/21 08:49:42;;;;;;;58.05;23.77;;;;;;;-0.79;99.34;103127.59;5013257;28;20045;-61
2023/01/21 08:52:09;;;;;;;60.20;24.67;;;;;;;-0.75;99.11;103133.97;5013282;28;20058;-62
2023/01/21 08:54:34;;;;;;;53.50;23.08;;;;;;;-0.77;98.47;103133.84;5016981;28;20064;-61
2023/01/21 08:56:59;;;;;;;61.83;24.83;;;;;;;-0.76;99.20;103137.34;5017103;28;20054;-62
2023/01/21 08:59:27;;;;;;;60.90;24.20;;;;;;;-0.74;99.92;103135.81;5016988;28;20026;-61
2023/01/21 09:01:53;;;;;;;59.88;23.60;;;;;;;-0.67;99.86;103146.00;5016826;28;20522;-62
2023/01/21 09:04:19;;;;;;;58.03;23.73;;;;;;;-0.60;99.99;103144.84;5016866;28;20038;-62
2023/01/21 09:06:44;;;;;;;59.38;24.30;;;;;;;-0.58;99.30;103146.84;5016773;28;20026;-61
2023/01/21 09:09:10;;;;;;;61.97;24.25;;;;;;;-0.63;99.33;103150.69;5016702;28;20041;-61
2023/01/21 09:11:36;;;;;;;56.22;23.42;;;;;;;-0.63;99.39;103152.38;5016662;28;20491;-62
2023/01/21 09:14:02;;;;;;;58.63;25.02;;;;;;;-0.67;99.74;103151.19;5016793;28;20036;-62
2023/01/21 09:16:30;;;;;;;56.47;22.17;;;;;;;-0.64;99.58;103153.13;5016781;28;20034;-62
2023/01/21 09:18:57;;;;;;;63.03;24.77;;;;;;;-0.60;99.97;103151.00;5016495;28;20033;-62
2023/01/21 09:21:22;;;;;;;62.20;24.85;;;;;;;-0.54;99.85;103150.63;5016393;28;20041;-63
2023/01/21 09:23:47;;;;;;;59.40;24.58;;;;;;;-0.49;99.69;103149.38;5016462;28;20030;-62
2023/01/21 09:26:16;;;;;;;61.10;23.90;;;;;;;-0.43;99.40;103155.13;5016360;28;20069;-62
2023/01/21 09:28:43;;;;;;;60.03;24.45;;;;;;;-0.41;99.09;103151.00;5016325;28;20037;-62
2023/01/21 09:31:12;;;;;;;52.83;22.08;;;;;;;-0.42;99.54;103158.66;5016279;28;20080;-62
2023/01/21 09:33:40;;;;;;;62.42;23.23;;;;;;;-0.43;98.64;103156.81;5016285;28;20370;-62
2023/01/21 09:36:08;;;;;;;59.00;22.60;;;;;;;-0.42;99.01;103156.97;5016188;28;20448;-62
2023/01/21 09:38:33;;;;;;;54.97;21.50;;;;;;;-0.38;98.54;103165.97;4998628;28;20029;-62
2023/01/21 09:41:24;;;;;;;58.22;21.40;;;;;;;-0.43;98.55;103168.09;5016183;28;20499;-62
2023/01/21 09:44:00;;;;;;;57.83;24.30;;;;;;;-0.47;98.75;103175.47;4999703;28;20046;-62
2023/01/21 09:46:34;;;;;;;61.10;22.50;;;;;;;-0.42;98.99;103184.63;5016102;28;20032;-62
2023/01/21 09:49:02;;;;;;;55.33;21.85;;;;;;;-0.40;99.25;103183.06;5016104;28;20133;-62
2023/01/21 09:51:41;;;;;;;55.97;22.52;;;;;;;-0.32;99.40;103200.28;5015841;28;20108;-62
2023/01/21 09:54:17;;;;;;;68.97;25.67;;;;;;;-0.28;99.33;103203.28;5015936;28;20064;-62
2023/01/21 09:56:57;;;;;;;63.22;23.15;;;;;;;-0.22;98.61;103209.81;5015944;28;20389;-62
2023/01/21 09:59:32;;;;;;;60.00;24.27;;;;;;;-0.19;98.59;103212.72;5015719;28;20029;-62
2023/01/21 10:01:59;;;;;;;59.15;22.55;;;;;;;-0.18;98.26;103220.63;5016008;28;20038;-62
2023/01/21 10:04:32;;;;;;;62.03;24.55;;;;;;;-0.16;97.97;103218.19;5014692;28;20084;-62
2023/01/21 10:07:03;;;;;;;61.95;23.35;;;;;;;-0.13;98.34;103229.78;5015940;28;20056;-63
2023/01/21 10:09:46;;;;;;;61.63;22.55;;;;;;;-0.12;98.42;103226.41;5015595;28;20033;-62
2023/01/21 10:12:24;;;;;;;64.40;24.25;;;;;;;-0.07;98.36;103230.34;5015615;28;20030;-62
2023/01/21 10:14:52;;;;;;;67.47;23.42;;;;;;;-0.02;98.23;103234.28;5015505;28;20480;-62
2023/01/21 10:17:28;;;;;;;56.88;22.13;;;;;;;0.04;98.47;103233.00;5015661;28;20036;-62
2023/01/21 10:20:04;;;;;;;60.10;22.42;;;;;;;0.11;98.26;103230.19;5015299;28;20052;-63
2023/01/21 10:22:29;;;;;;;60.45;22.48;;;;;;;0.09;97.51;103222.28;5015455;28;20045;-63
2023/01/21 10:25:00;;;;;;;61.20;22.42;;;;;;;0.14;97.18;103223.59;5015383;28;20415;-63
2023/01/21 10:27:27;;;;;;;59.33;22.65;;;;;;;0.19;97.53;103214.53;5015610;28;20034;-63
2023/01/21 10:30:00;;;;;;;65.07;22.98;;;;;;;0.23;97.16;103219.22;5015223;28;20030;-63
2023/01/21 10:32:26;;;;;;;59.17;23.20;;;;;;;0.31;97.51;103225.13;5015242;28;20114;-63
2023/01/21 10:34:56;;;;;;;62.13;22.77;;;;;;;0.36;97.45;103223.84;5015194;28;20062;-65
2023/01/21 10:37:24;;;;;;;57.00;21.80;;;;;;;0.46;97.37;103215.19;5015168;28;20036;-63
2023/01/21 10:40:09;;;;;;;59.45;22.73;;;;;;;0.52;96.63;103214.84;5015016;28;20499;-63
2023/01/21 10:42:37;;;;;;;62.47;22.77;;;;;;;0.57;96.47;103197.94;5015316;28;20030;-63
2023/01/21 10:45:50;;;;;;;59.13;23.45;;;;;;;0.68;97.25;103203.28;5002311;28;20026;-63
2023/01/21 10:48:26;;;;;;;73.90;27.98;;;;;;;0.78;96.70;103202.44;4954290;28;20113;-64
2023/01/21 10:51:17;;;;;;;64.05;23.65;;;;;;;0.86;96.40;103198.81;4954281;29;20051;-64
2023/01/21 10:53:51;;;;;;;65.32;24.20;;;;;;;1.05;96.39;103200.41;4983016;28;20038;-64
2023/01/21 10:56:47;;;;;;;57.53;22.42;;;;;;;1.18;95.53;103208.50;4995060;28;20022;-65
2023/01/21 10:59:21;;;;;;;56.67;22.75;;;;;;;1.31;95.94;103192.25;4994915;28;20036;-65
2023/01/21 11:01:51;;;;;;;58.30;23.42;;;;;;;1.46;95.82;103197.09;4994899;28;20543;-65
2023/01/21 11:04:22;;;;;;;63.22;22.73;;;;;;;1.62;95.26;103199.28;4995051;28;20038;-66
2023/01/21 11:06:58;;;;;;;60.70;23.27;;;;;;;1.82;95.36;103193.16;4994844;28;20498;-66
2023/01/21 11:09:26;;;;;;;63.13;24.70;;;;;;;2.17;96.16;103187.34;4994833;28;20035;-65
2023/01/21 11:11:52;;;;;;;60.65;23.33;;;;;;;2.47;95.73;103189.84;4994769;28;20041;-65
2023/01/21 11:14:18;;;;;;;57.90;23.45;;;;;;;2.82;95.56;103196.06;4994852;28;20394;-66
2023/01/21 11:16:48;;;;;;;56.20;22.77;;;;;;;3.27;95.46;103188.34;4994440;28;20109;-66
2023/01/21 11:19:31;;;;;;;60.33;22.63;;;;;;;3.78;95.04;103181.78;5003787;28;20034;-66
2023/01/21 11:22:26;;;;;;;56.58;23.05;;;;;;;4.14;89.73;103192.38;5014359;28;20080;-66
2023/01/21 11:24:51;;;;;;;58.22;23.95;;;;;;;4.26;87.39;103201.16;5013920;28;20152;-66